Time;durP1;ratioP1;P1;durP2;ratioP2;P2;SDS_P1;SDS_P2;PMS_P1;PMS_P2;Temp;Humidity;BMP_temperature;BMP_pressure;BME280_temperature;BME280_humidity;BME280_pressure;Samples;Min_cycle;Max_cycle;Signal;HPM_P1;HPM_P2
2021/04/11 00:00:23;;;;;;;0.60;0.22;;;2.90;99.90;;;;;;6157608;23;20072;-75
2021/04/11 00:02:49;;;;;;;0.90;0.30;;;2.90;99.90;;;;;;6131443;23;20005;-74
2021/04/11 00:05:17;;;;;;;1.92;0.35;;;2.90;99.90;;;;;;6131532;23;19997;-76
2021/04/11 00:07:42;;;;;;;0.57;0.15;;;2.90;99.90;;;;;;6131427;23;20344;-74
2021/04/11 00:10:13;;;;;;;2.20;0.25;;;2.90;99.90;;;;;;6131649;23;20025;-75
2021/04/11 00:12:39;;;;;;;1.05;0.30;;;2.90;99.90;;;;;;6157745;23;19997;-74
2021/04/11 00:15:07;;;;;;;1.58;0.40;;;3.00;99.90;;;;;;6131007;23;20128;-74
2021/04/11 00:17:33;;;;;;;0.68;0.30;;;2.90;99.90;;;;;;6157067;23;20077;-74
2021/04/11 00:19:59;;;;;;;1.40;0.75;;;3.00;99.90;;;;;;6157405;23;19998;-74
2021/04/11 00:22:24;;;;;;;1.42;0.30;;;3.00;99.90;;;;;;6157973;23;20102;-74
2021/04/11 00:24:50;;;;;;;1.70;0.60;;;3.00;99.90;;;;;;6157130;23;20001;-74
2021/04/11 00:27:15;;;;;;;3.75;0.90;;;3.10;99.90;;;;;;6157118;23;19998;-74
2021/04/11 00:29:41;;;;;;;0.85;0.30;;;3.10;99.90;;;;;;6131021;23;20495;-74
2021/04/11 00:32:08;;;;;;;0.70;0.32;;;3.10;99.90;;;;;;6131162;23;20055;-74
2021/04/11 00:34:34;;;;;;;2.15;0.77;;;3.10;99.90;;;;;;6157176;23;20002;-74
2021/04/11 00:37:02;;;;;;;1.60;0.47;;;3.20;99.90;;;;;;6156866;23;20088;-74
2021/04/11 00:39:27;;;;;;;0.95;0.43;;;3.10;99.90;;;;;;6157053;23;20005;-74
2021/04/11 00:41:59;;;;;;;0.73;0.60;;;3.20;99.90;;;;;;6157396;23;20336;-74
2021/04/11 00:44:27;;;;;;;1.20;0.30;;;3.10;99.90;;;;;;6130696;23;20002;-74
2021/04/11 00:46:55;;;;;;;1.13;0.30;;;3.20;99.90;;;;;;6157075;23;20128;-74
2021/04/11 00:49:41;;;;;;;0.50;0.32;;;3.20;99.90;;;;;;6157640;23;20008;-76
2021/04/11 00:52:09;;;;;;;0.40;0.20;;;3.20;99.90;;;;;;6131038;23;20001;-74
2021/04/11 00:54:36;;;;;;;2.60;0.40;;;3.20;99.90;;;;;;6156889;23;20013;-75
2021/04/11 00:57:04;;;;;;;2.10;0.20;;;3.20;99.90;;;;;;6131374;23;20084;-75
2021/04/11 00:59:30;;;;;;;2.83;0.20;;;3.20;99.90;;;;;;6157385;23;20006;-74
2021/04/11 01:01:56;;;;;;;0.73;0.25;;;3.20;99.90;;;;;;6131522;23;20088;-74
2021/04/11 01:04:22;;;;;;;0.50;0.10;;;3.20;99.90;;;;;;6131201;23;20487;-74
2021/04/11 01:06:56;;;;;;;2.95;0.20;;;3.20;99.90;;;;;;6129385;23;20005;-75
2021/04/11 01:09:25;;;;;;;0.52;0.15;;;4.20;99.90;;;;;;6131984;23;20017;-75
2021/04/11 01:11:53;;;;;;;0.28;0.00;;;3.20;99.90;;;;;;6131153;23;20010;-75
2021/04/11 01:14:20;;;;;;;0.70;0.00;;;3.30;99.90;;;;;;6157505;23;20043;-74
2021/04/11 01:16:46;;;;;;;0.55;0.10;;;3.30;99.90;;;;;;6130914;23;20005;-74
2021/04/11 01:19:18;;;;;;;0.17;0.00;;;3.30;99.90;;;;;;6157316;23;20005;-74
2021/04/11 01:21:55;;;;;;;1.55;0.20;;;3.30;99.90;;;;;;6157880;23;20429;-74
2021/04/11 01:24:43;;;;;;;0.28;0.10;;;3.30;99.90;;;;;;6131733;23;20009;-74
2021/04/11 01:27:11;;;;;;;0.52;0.35;;;3.30;99.90;;;;;;6156717;23;20009;-75
2021/04/11 01:32:07;;;;;;;0.10;0.00;;;3.30;99.90;;;;;;6157438;23;20030;-75
2021/04/11 01:34:33;;;;;;;0.10;0.00;;;3.30;99.90;;;;;;6156987;23;20028;-75
2021/04/11 01:36:59;;;;;;;0.20;0.00;;;3.30;99.90;;;;;;6130533;23;20001;-75
2021/04/11 01:39:29;;;;;;;0.95;0.00;;;3.30;99.90;;;;;;6130850;23;20083;-74
2021/04/11 01:41:55;;;;;;;1.00;0.00;;;3.30;99.90;;;;;;6130424;23;20437;-74
2021/04/11 01:44:26;;;;;;;0.40;0.00;;;3.30;99.90;;;;;;6156910;23;20010;-75
2021/04/11 01:46:53;;;;;;;0.82;0.00;;;3.30;99.90;;;;;;6156900;23;20525;-75
2021/04/11 01:49:21;;;;;;;0.55;0.20;;;3.40;99.90;;;;;;6156470;23;20005;-74
2021/04/11 01:51:49;;;;;;;0.43;0.10;;;3.40;99.90;;;;;;6157050;23;20049;-75
2021/04/11 01:54:25;;;;;;;0.20;0.00;;;3.40;99.90;;;;;;6156514;23;20006;-74
2021/04/11 01:56:51;;;;;;;0.10;0.00;;;3.40;99.90;;;;;;6157091;23;20006;-75
2021/04/11 01:59:19;;;;;;;1.17;0.22;;;3.40;99.90;;;;;;6156459;23;20310;-74
2021/04/11 02:01:49;;;;;;;0.10;0.00;;;3.40;99.90;;;;;;6156618;23;20001;-74
2021/04/11 02:04:15;;;;;;;0.57;0.00;;;3.40;99.90;;;;;;6156232;23;20503;-75
2021/04/11 02:06:53;;;;;;;0.00;0.00;;;3.40;99.90;;;;;;6156261;23;20002;-75
2021/04/11 02:09:24;;;;;;;0.57;0.00;;;3.40;99.90;;;;;;6156385;23;20001;-76
2021/04/11 02:11:51;;;;;;;0.20;0.00;;;3.30;99.90;;;;;;6157160;23;20005;-76
2021/04/11 02:14:17;;;;;;;0.00;0.00;;;3.40;99.90;;;;;;6157413;23;20012;-76
2021/04/11 02:16:42;;;;;;;0.00;0.00;;;3.40;99.90;;;;;;6156575;23;20010;-75
2021/04/11 02:19:14;;;;;;;0.00;0.00;;;3.30;99.90;;;;;;6130668;23;20009;-74
2021/04/11 02:21:42;;;;;;;0.00;0.00;;;3.30;99.90;;;;;;6130726;23;20322;-75
2021/04/11 02:24:09;;;;;;;0.00;0.00;;;3.30;99.90;;;;;;6158119;23;20422;-74
2021/04/11 02:26:36;;;;;;;0.20;0.00;;;3.30;99.90;;;;;;6132569;23;20012;-74
2021/04/11 02:29:09;;;;;;;0.38;0.00;;;3.30;99.90;;;;;;6131768;23;20333;-76
2021/04/11 02:31:35;;;;;;;0.10;0.00;;;3.30;99.90;;;;;;6132567;23;20005;-74
2021/04/11 02:34:03;;;;;;;0.00;0.00;;;3.30;99.90;;;;;;6158469;23;20060;-75
2021/04/11 02:36:40;;;;;;;0.38;0.00;;;3.30;99.90;;;;;;6158623;23;20005;-75
2021/04/11 02:39:13;;;;;;;1.40;0.00;;;3.30;99.90;;;;;;6157522;23;20395;-74
2021/04/11 02:41:41;;;;;;;0.20;0.00;;;3.30;99.90;;;;;;6158780;23;20002;-74
2021/04/11 02:44:08;;;;;;;0.20;0.00;;;3.30;99.90;;;;;;6158440;23;20069;-75
2021/04/11 02:46:35;;;;;;;0.10;0.00;;;3.30;99.90;;;;;;6156771;23;20026;-74
2021/04/11 02:49:01;;;;;;;1.15;0.00;;;3.30;99.90;;;;;;6158263;23;19998;-75
2021/04/11 02:51:30;;;;;;;0.35;0.00;;;3.40;99.90;;;;;;6158401;23;20033;-74
2021/04/11 02:53:58;;;;;;;0.00;0.00;;;3.30;99.90;;;;;;6158888;23;20013;-74
2021/04/11 02:56:25;;;;;;;1.30;0.25;;;3.30;99.90;;;;;;6157156;23;20437;-75
2021/04/11 02:58:51;;;;;;;0.20;0.00;;;3.30;99.90;;;;;;6158130;23;20025;-75
2021/04/11 03:01:24;;;;;;;1.85;0.00;;;3.30;99.90;;;;;;6158208;23;20064;-74
2021/04/11 03:03:50;;;;;;;0.17;0.10;;;3.40;99.90;;;;;;6157759;23;20072;-74
2021/04/11 03:06:20;;;;;;;0.60;0.00;;;2.50;99.90;;;;;;6127624;23;20001;-75
2021/04/11 03:08:50;;;;;;;0.45;0.10;;;3.30;99.90;;;;;;6129024;23;20045;-74
2021/04/11 03:11:29;;;;;;;1.80;0.00;;;3.40;99.90;;;;;;6128242;23;20002;-76
2021/04/11 03:13:57;;;;;;;1.23;0.00;;;3.40;99.90;;;;;;6128330;23;20056;-76
2021/04/11 03:16:24;;;;;;;0.00;0.00;;;3.40;99.90;;;;;;6103358;23;20061;-76
2021/04/11 03:18:54;;;;;;;0.00;0.00;;;3.40;99.90;;;;;;6102307;23;20010;-75
2021/04/11 03:21:19;;;;;;;0.85;0.00;;;3.40;99.90;;;;;;6102500;23;20342;-76
2021/04/11 03:23:45;;;;;;;0.00;0.00;;;3.30;99.90;;;;;;6127090;23;20033;-76
2021/04/11 03:26:17;;;;;;;0.75;0.00;;;3.40;99.90;;;;;;6128664;23;20002;-76
2021/04/11 03:28:58;;;;;;;0.50;0.00;;;3.40;99.90;;;;;;6127998;23;20025;-74
2021/04/11 03:31:40;;;;;;;0.00;0.00;;;3.30;99.90;;;;;;6129034;23;20322;-74
2021/04/11 03:34:07;;;;;;;0.55;0.00;;;3.40;99.90;;;;;;6127776;23;20009;-74
2021/04/11 03:36:35;;;;;;;2.95;0.00;;;3.50;99.90;;;;;;6128241;23;20033;-74
2021/04/11 03:39:03;;;;;;;1.08;0.00;;;3.40;99.90;;;;;;6128813;23;20037;-74
2021/04/11 03:41:33;;;;;;;1.45;0.00;;;3.40;99.90;;;;;;6128258;23;20033;-74
2021/04/11 03:44:05;;;;;;;1.20;0.00;;;3.40;99.90;;;;;;6102061;23;20037;-74
2021/04/11 03:46:37;;;;;;;2.05;0.00;;;3.40;99.90;;;;;;6102450;23;20025;-74
2021/04/11 03:49:03;;;;;;;1.45;0.00;;;3.40;99.90;;;;;;6126921;23;20006;-74
2021/04/11 03:51:32;;;;;;;0.80;0.00;;;3.50;99.90;;;;;;6126825;23;20049;-74
2021/04/11 03:54:12;;;;;;;2.92;0.03;;;3.40;99.90;;;;;;6102058;23;20009;-74
2021/04/11 03:56:43;;;;;;;1.50;0.00;;;3.40;99.90;;;;;;6128352;23;20085;-75
2021/04/11 03:59:12;;;;;;;1.25;0.00;;;3.50;99.90;;;;;;6128691;23;20077;-76
2021/04/11 04:01:48;;;;;;;;;;;3.50;99.90;;;;;;6102971;23;20081;-75
2021/04/11 04:04:19;;;;;;;0.63;0.00;;;3.50;99.90;;;;;;6102004;23;19909;-76
2021/04/11 04:07:07;;;;;;;0.00;0.00;;;3.40;99.90;;;;;;6128690;23;20006;-76
2021/04/11 04:09:33;;;;;;;0.82;0.00;;;3.50;99.90;;;;;;6128357;23;19998;-74
2021/04/11 04:12:13;;;;;;;3.80;0.82;;;3.50;99.90;;;;;;6128212;23;20082;-74
2021/04/11 04:15:18;;;;;;;1.80;0.05;;;3.50;99.90;;;;;;6126609;23;20061;-74
2021/04/11 04:18:06;;;;;;;2.05;0.43;;;3.50;99.90;;;;;;6127965;23;20089;-74
2021/04/11 04:20:56;;;;;;;0.17;0.00;;;3.50;99.90;;;;;;6128109;23;20380;-74
2021/04/11 04:23:34;;;;;;;0.38;0.00;;;3.60;99.90;;;;;;6128220;23;20006;-74
2021/04/11 04:26:37;;;;;;;1.90;0.00;;;3.50;99.90;;;;;;6127952;23;20110;-74
2021/04/11 04:29:15;;;;;;;0.00;0.00;;;3.50;99.90;;;;;;6101532;23;20457;-75
2021/04/11 04:32:11;;;;;;;1.42;0.13;;;3.50;99.90;;;;;;6102186;23;20001;-74
2021/04/11 04:35:03;;;;;;;0.85;0.00;;;3.50;99.90;;;;;;6120645;23;20017;-75
2021/04/11 04:37:53;;;;;;;0.20;0.00;;;3.50;99.90;;;;;;6111459;23;20001;-75
2021/04/11 04:40:41;;;;;;;4.68;0.50;;;3.50;99.90;;;;;;6128932;23;20080;-74
2021/04/11 04:43:20;;;;;;;0.43;0.03;;;3.60;99.90;;;;;;6128116;23;20010;-75
2021/04/11 04:46:03;;;;;;;;;;;3.60;99.90;;;;;;6128557;23;20214;-74
2021/04/11 04:48:37;;;;;;;0.30;0.00;;;3.60;99.90;;;;;;6128361;23;19904;-74
2021/04/11 04:51:16;;;;;;;2.05;0.10;;;3.60;99.90;;;;;;6101583;23;20486;-74
2021/04/11 04:54:00;;;;;;;1.65;0.13;;;3.60;99.90;;;;;;6127589;23;20005;-75
2021/04/11 04:56:33;;;;;;;3.58;0.00;;;3.60;99.90;;;;;;6127584;23;20006;-75
2021/04/11 04:59:04;;;;;;;0.68;0.00;;;3.60;99.90;;;;;;6127941;23;20385;-75
2021/04/11 05:01:39;;;;;;;1.85;0.00;;;3.60;99.90;;;;;;6127994;23;20005;-76
2021/04/11 05:04:12;;;;;;;1.45;0.10;;;3.50;99.90;;;;;;6102228;23;20016;-75
2021/04/11 05:06:43;;;;;;;3.40;0.10;;;3.50;99.90;;;;;;6101982;23;20097;-76
2021/04/11 05:09:22;;;;;;;2.00;0.10;;;3.50;99.90;;;;;;6101483;23;20025;-74
2021/04/11 05:11:57;;;;;;;;;;;3.60;99.90;;;;;;6128125;23;20026;-75
2021/04/11 05:14:28;;;;;;;3.47;0.03;;;3.60;99.90;;;;;;6127472;23;19904;-76
2021/04/11 05:17:13;;;;;;;1.17;0.10;;;3.60;99.90;;;;;;6127560;23;20009;-75
2021/04/11 05:19:42;;;;;;;2.58;0.20;;;3.60;99.90;;;;;;6127415;23;20050;-76
2021/04/11 05:22:15;;;;;;;9.30;0.57;;;3.60;99.90;;;;;;6127543;23;20009;-73
2021/04/11 05:24:46;;;;;;;3.97;0.13;;;3.70;99.90;;;;;;6122964;23;20028;-75
2021/04/11 05:27:19;;;;;;;2.60;0.00;;;3.50;99.90;;;;;;6154568;23;20009;-74
2021/04/11 05:30:13;;;;;;;5.25;0.13;;;3.30;99.90;;;;;;6127369;23;20006;-74
2021/04/11 05:32:40;;;;;;;1.25;0.05;;;3.60;99.90;;;;;;6088467;23;20002;-76
2021/04/11 05:35:06;;;;;;;3.38;0.55;;;3.50;99.90;;;;;;6106724;23;20483;-74
2021/04/11 05:38:05;;;;;;;7.20;0.08;;;3.70;99.90;;;;;;6136938;23;20075;-74
2021/04/11 05:40:34;;;;;;;3.40;0.03;;;3.70;99.90;;;;;;6127726;23;20009;-76
2021/04/11 05:43:18;;;;;;;1.75;0.00;;;3.70;99.90;;;;;;6127587;23;20025;-75
2021/04/11 05:46:09;;;;;;;0.57;0.00;;;3.70;99.90;;;;;;6101677;23;20397;-74
2021/04/11 05:48:44;;;;;;;2.45;0.00;;;3.80;99.90;;;;;;6127384;23;20014;-74
2021/04/11 05:51:31;;;;;;;2.15;0.00;;;3.80;99.90;;;;;;6127740;23;19998;-75
2021/04/11 05:54:12;;;;;;;2.08;0.00;;;3.80;99.90;;;;;;6127757;23;20351;-75
2021/04/11 05:56:42;;;;;;;1.13;0.00;;;3.80;99.90;;;;;;6127717;23;20440;-75
2021/04/11 05:59:12;;;;;;;0.43;0.00;;;3.90;99.90;;;;;;6103279;23;20390;-74
2021/04/11 06:01:42;;;;;;;2.33;0.00;;;3.90;99.90;;;;;;6128964;23;20097;-74
2021/04/11 06:04:38;;;;;;;1.65;0.43;;;3.90;99.90;;;;;;6129316;23;20077;-76
2021/04/11 06:07:23;;;;;;;1.70;0.30;;;3.90;99.90;;;;;;6128929;23;20334;-75
2021/04/11 06:09:59;;;;;;;1.10;0.10;;;3.80;99.90;;;;;;6128912;23;19998;-75
2021/04/11 06:12:54;;;;;;;0.60;0.00;;;3.80;99.90;;;;;;6128679;23;20002;-74
2021/04/11 06:15:46;;;;;;;2.20;0.00;;;3.80;99.90;;;;;;6112941;23;20002;-74
2021/04/11 06:18:13;;;;;;;5.68;0.00;;;3.90;99.90;;;;;;6122484;23;20002;-74
2021/04/11 06:20:39;;;;;;;1.75;0.30;;;3.90;99.90;;;;;;6128562;23;20005;-74
2021/04/11 06:23:28;;;;;;;1.50;0.00;;;4.00;99.90;;;;;;6128923;23;20013;-74
2021/04/11 06:26:09;;;;;;;2.10;0.22;;;3.90;99.90;;;;;;6102428;23;20033;-74
2021/04/11 06:28:57;;;;;;;2.97;0.00;;;4.00;99.90;;;;;;6152656;23;20067;-75
2021/04/11 06:31:30;;;;;;;3.40;0.27;;;4.00;99.90;;;;;;6158272;23;19997;-74
2021/04/11 06:34:05;;;;;;;0.13;0.00;;;4.00;99.90;;;;;;6132607;23;20062;-75
2021/04/11 06:36:38;;;;;;;2.42;0.00;;;4.00;99.90;;;;;;6157535;23;20337;-74
2021/04/11 06:39:12;;;;;;;2.83;0.10;;;3.60;99.90;;;;;;6157489;23;20144;-75
2021/04/11 06:41:52;;;;;;;2.72;0.00;;;3.90;99.90;;;;;;6158045;23;20072;-75
2021/04/11 06:44:29;;;;;;;0.10;0.00;;;4.00;99.90;;;;;;6158726;23;20368;-74
2021/04/11 06:46:58;;;;;;;1.65;0.00;;;4.10;99.90;;;;;;6132041;23;20028;-76
2021/04/11 06:49:51;;;;;;;6.20;0.57;;;4.10;99.90;;;;;;6131146;23;20033;-74
2021/04/11 06:52:38;;;;;;;2.38;0.20;;;4.10;99.90;;;;;;6158448;23;20076;-75
2021/04/11 06:55:31;;;;;;;2.88;0.10;;;4.20;99.90;;;;;;6158054;23;20097;-75
2021/04/11 06:58:19;;;;;;;1.75;0.00;;;4.10;99.90;;;;;;6158587;23;20437;-74
2021/04/11 07:01:22;;;;;;;1.60;0.00;;;4.10;99.90;;;;;;6131939;23;20005;-76
2021/04/11 07:03:53;;;;;;;2.03;0.00;;;4.10;99.90;;;;;;6131726;23;20012;-75
2021/04/11 07:06:48;;;;;;;2.75;0.00;;;4.10;99.90;;;;;;6157942;23;20001;-75
2021/04/11 07:09:20;;;;;;;3.38;0.08;;;4.10;99.90;;;;;;6158335;23;19997;-74
2021/04/11 07:12:08;;;;;;;3.58;0.00;;;4.10;99.90;;;;;;6158072;23;20059;-74
2021/04/11 07:15:16;;;;;;;1.17;0.00;;;4.10;99.90;;;;;;6158514;23;20012;-74
2021/04/11 07:18:03;;;;;;;5.38;0.00;;;4.10;99.90;;;;;;6138216;23;20072;-74
2021/04/11 07:20:58;;;;;;;4.65;0.15;;;4.00;99.90;;;;;;6157221;23;20025;-75
2021/04/11 07:24:06;;;;;;;6.38;0.10;;;4.10;99.90;;;;;;6158495;23;20056;-74
2021/04/11 07:26:43;;;;;;;;;;;4.30;99.90;;;;;;6157333;23;20037;-77
2021/04/11 07:29:45;;;;;;;4.60;0.55;;;4.30;99.90;;;;;;6157510;23;20034;-75
2021/04/11 07:32:47;;;;;;;2.92;0.00;;;4.40;99.90;;;;;;6157782;23;20013;-74
2021/04/11 07:35:33;;;;;;;2.22;0.52;;;4.50;99.90;;;;;;6131493;23;20452;-77
2021/04/11 07:38:26;;;;;;;2.30;0.00;;;4.50;99.90;;;;;;6157759;23;20056;-75
2021/04/11 07:41:35;;;;;;;1.88;0.00;;;4.60;99.90;;;;;;6157713;23;20049;-75
2021/04/11 07:44:38;;;;;;;0.70;0.00;;;4.60;99.90;;;;;;6157440;23;20403;-75
2021/04/11 07:47:35;;;;;;;4.45;0.00;;;4.70;99.90;;;;;;6131075;23;20001;-75
2021/04/11 07:50:25;;;;;;;2.15;0.00;;;4.70;99.90;;;;;;6157749;23;20388;-75
2021/04/11 07:53:01;;;;;;;2.85;0.00;;;4.70;99.90;;;;;;6157641;23;20072;-75
2021/04/11 07:56:09;;;;;;;1.13;0.25;;;4.80;99.90;;;;;;6159754;23;20333;-78
2021/04/11 07:58:52;;;;;;;0.93;0.00;;;4.80;99.90;;;;;;6132923;23;20009;-78
2021/04/11 08:02:00;;;;;;;1.38;0.03;;;4.80;99.90;;;;;;6131420;23;20040;-78
2021/04/11 08:04:36;;;;;;;3.63;0.00;;;4.60;99.90;;;;;;6159585;23;20009;-78
2021/04/11 08:07:32;;;;;;;4.25;0.00;;;4.70;99.90;;;;;;6158667;23;20052;-79
2021/04/11 08:10:05;;;;;;;0.52;0.00;;;4.80;99.90;;;;;;6136467;23;20001;-79
2021/04/11 08:13:04;;;;;;;1.42;0.38;;;4.80;99.90;;;;;;6132361;23;20001;-76
2021/04/11 08:15:44;;;;;;;1.33;0.08;;;4.90;99.90;;;;;;6160637;23;20384;-79
2021/04/11 08:18:53;;;;;;;9.20;0.63;;;5.10;99.90;;;;;;6135044;23;20464;-79
2021/04/11 08:21:41;;;;;;;0.75;0.00;;;5.30;99.90;;;;;;6134255;23;20029;-77
2021/04/11 08:24:42;;;;;;;0.70;0.00;;;5.50;99.90;;;;;;6162244;23;20013;-81
2021/04/11 08:27:33;;;;;;;0.35;0.10;;;5.50;99.90;;;;;;6162227;23;20006;-81
2021/04/11 08:30:17;;;;;;;1.45;0.10;;;5.50;99.90;;;;;;6136238;23;20332;-81
2021/04/11 08:33:14;;;;;;;1.92;0.00;;;5.60;99.90;;;;;;6134906;23;19997;-81
2021/04/11 08:35:58;;;;;;;1.48;0.00;;;5.70;99.90;;;;;;6160808;23;20009;-80
2021/04/11 08:39:09;;;;;;;0.55;0.00;;;5.80;99.90;;;;;;6134698;23;20077;-80
2021/04/11 08:41:55;;;;;;;0.30;0.00;;;5.90;99.90;;;;;;6159147;23;19997;-80
2021/04/11 08:45:05;;;;;;;2.00;0.10;;;6.20;99.90;;;;;;6158528;23;20053;-80
2021/04/11 08:47:59;;;;;;;1.27;0.08;;;6.20;99.90;;;;;;6159226;23;20053;-80
2021/04/11 08:50:52;;;;;;;3.03;0.00;;;6.30;99.90;;;;;;6132534;23;20065;-80
2021/04/11 08:53:32;;;;;;;0.47;0.00;;;6.10;99.90;;;;;;6132865;23;20010;-80
2021/04/11 08:56:24;;;;;;;0.93;0.00;;;6.20;99.90;;;;;;6132618;23;20006;-80
2021/04/11 08:59:11;;;;;;;3.03;0.00;;;6.20;99.90;;;;;;6131081;23;20009;-78
2021/04/11 09:01:46;;;;;;;1.17;0.00;;;6.20;99.90;;;;;;6132999;23;20032;-79
2021/04/11 09:04:29;;;;;;;1.10;0.00;;;6.20;99.90;;;;;;6158170;23;20036;-77
2021/04/11 09:07:08;;;;;;;6.05;0.00;;;6.20;99.90;;;;;;6159205;23;20056;-79
2021/04/11 09:10:13;;;;;;;2.03;0.13;;;6.10;99.90;;;;;;6131472;23;19998;-76
2021/04/11 09:12:46;;;;;;;2.05;0.85;;;6.10;99.90;;;;;;6105046;23;20029;-78
2021/04/11 09:15:27;;;;;;;1.63;0.00;;;8.50;99.90;;;;;;6133000;23;20073;-75
2021/04/11 09:18:10;;;;;;;1.13;0.00;;;6.60;99.90;;;;;;6132726;23;20005;-77
2021/04/11 09:21:01;;;;;;;1.23;0.10;;;6.60;99.90;;;;;;6131059;23;20052;-78
2021/04/11 09:23:37;;;;;;;0.45;0.00;;;7.00;99.90;;;;;;6130612;23;20013;-76
2021/04/11 09:26:24;;;;;;;1.38;0.50;;;7.10;99.90;;;;;;6157036;23;20008;-77
2021/04/11 09:29:32;;;;;;;1.23;0.00;;;7.00;99.90;;;;;;6156948;23;20040;-77
2021/04/11 09:32:15;;;;;;;2.72;0.00;;;6.90;99.90;;;;;;6130619;23;20001;-79
2021/04/11 09:34:48;;;;;;;1.85;0.00;;;6.80;99.90;;;;;;6156563;23;20048;-77
2021/04/11 09:37:26;;;;;;;0.35;0.00;;;6.70;99.90;;;;;;6130338;23;20001;-78
2021/04/11 09:40:15;;;;;;;1.00;0.00;;;6.60;99.90;;;;;;6158978;23;20037;-77
2021/04/11 09:42:56;;;;;;;0.40;0.00;;;6.70;99.90;;;;;;6132007;23;20248;-76
2021/04/11 09:46:00;;;;;;;0.47;0.00;;;6.90;99.90;;;;;;6156965;23;20013;-76
2021/04/11 09:48:29;;;;;;;0.70;0.05;;;7.10;99.90;;;;;;6132263;23;20025;-77
2021/04/11 09:51:31;;;;;;;0.40;0.00;;;7.30;99.90;;;;;;6156983;23;20001;-77
2021/04/11 09:54:06;;;;;;;2.28;0.00;;;7.40;99.90;;;;;;6157656;23;20337;-76
2021/04/11 09:57:08;;;;;;;0.80;0.00;;;7.40;99.90;;;;;;6156961;23;20002;-74
2021/04/11 10:00:00;;;;;;;3.45;0.10;;;7.70;99.90;;;;;;6156929;23;20005;-80
2021/04/11 10:02:54;;;;;;;0.05;0.00;;;7.80;99.90;;;;;;6156727;23;20002;-74
2021/04/11 10:05:38;;;;;;;3.10;0.55;;;7.60;97.50;;;;;;6157239;23;20033;-77
2021/04/11 10:08:18;;;;;;;4.13;0.00;;;7.50;99.90;;;;;;6156707;23;20001;-75
2021/04/11 10:11:07;;;;;;;1.33;0.00;;;7.60;99.90;;;;;;6156981;23;20029;-74
2021/04/11 10:13:46;;;;;;;1.90;0.10;;;7.60;99.90;;;;;;6157199;23;20433;-78
2021/04/11 10:16:31;;;;;;;0.13;0.00;;;7.70;98.40;;;;;;6157013;23;20008;-74
2021/04/11 10:19:27;;;;;;;1.20;0.00;;;8.00;99.50;;;;;;6130328;23;20013;-75
2021/04/11 10:22:06;;;;;;;3.63;0.00;;;7.90;99.90;;;;;;6156774;23;20500;-75
2021/04/11 10:25:04;;;;;;;1.65;0.28;;;7.80;99.00;;;;;;6156659;23;20329;-76
2021/04/11 10:27:50;;;;;;;3.92;0.00;;;7.80;97.40;;;;;;6156438;23;20444;-74
2021/04/11 10:30:18;;;;;;;1.95;0.00;;;7.80;98.40;;;;;;6130430;23;20002;-74
2021/04/11 10:32:58;;;;;;;6.03;0.05;;;7.90;98.70;;;;;;6130457;23;20452;-78
2021/04/11 10:35:54;;;;;;;3.20;0.35;;;7.90;95.30;;;;;;6156987;23;20002;-78
2021/04/11 10:38:45;;;;;;;0.75;0.00;;;7.90;96.80;;;;;;6156523;23;20333;-77
2021/04/11 10:41:38;;;;;;;1.13;0.00;;;8.00;99.30;;;;;;6156521;23;20001;-76
2021/04/11 10:44:40;;;;;;;0.98;0.00;;;8.00;96.60;;;;;;6131068;23;20009;-76
2021/04/11 10:47:49;;;;;;;3.50;0.28;;;8.20;99.60;;;;;;6158034;23;20437;-76
2021/04/11 10:50:34;;;;;;;0.73;0.10;;;8.40;95.70;;;;;;6131933;23;20314;-74
2021/04/11 10:53:38;;;;;;;0.73;0.00;;;8.50;93.10;;;;;;6158775;23;20322;-73
2021/04/11 10:56:25;;;;;;;6.57;0.75;;;8.60;96.70;;;;;;6113761;23;20337;-75
2021/04/11 10:59:22;;;;;;;1.23;0.00;;;8.60;94.60;;;;;;6132184;23;20006;-77
2021/04/11 11:02:03;;;;;;;0.20;0.00;;;8.30;93.40;;;;;;6132044;23;19998;-74
2021/04/11 11:04:43;;;;;;;0.30;0.10;;;8.00;92.70;;;;;;6131991;23;20092;-76
2021/04/11 11:07:39;;;;;;;1.13;0.00;;;7.80;94.60;;;;;;6158402;23;20012;-78
2021/04/11 11:10:08;;;;;;;0.45;0.00;;;7.80;96.30;;;;;;6158470;23;20012;-76
2021/04/11 11:12:58;;;;;;;0.85;0.00;;;7.80;94.00;;;;;;6157848;23;20040;-77
2021/04/11 11:16:01;;;;;;;0.03;0.00;;;8.00;96.30;;;;;;6158010;23;20444;-76
2021/04/11 11:19:21;;;;;;;2.90;0.00;;;8.10;93.80;;;;;;6158002;23;20009;-76
2021/04/11 11:22:04;;;;;;;1.63;0.05;;;8.20;94.60;;;;;;6011042;23;20011;-74
2021/04/11 11:24:57;;;;;;;4.43;0.00;;;8.30;91.50;;;;;;6144193;23;20041;-75
2021/04/11 11:30:14;;;;;;;1.45;0.00;;;8.70;90.40;;;;;;6158390;23;20022;-75
2021/04/11 11:33:03;;;;;;;1.77;0.00;;;8.60;84.80;;;;;;6132301;23;20017;-74
2021/04/11 11:35:29;;;;;;;0.30;0.00;;;8.70;90.40;;;;;;6158612;23;20277;-75
2021/04/11 11:38:15;;;;;;;3.97;0.35;;;8.90;90.20;;;;;;6133479;23;20129;-76
2021/04/11 11:41:04;;;;;;;0.00;0.00;;;9.00;90.40;;;;;;6103288;23;20002;-74
2021/04/11 11:43:36;;;;;;;0.32;0.00;;;9.10;84.70;;;;;;6128284;23;20002;-75
2021/04/11 11:46:02;;;;;;;0.70;0.00;;;9.30;85.90;;;;;;6129044;23;20445;-74
2021/04/11 11:48:59;;;;;;;2.20;0.00;;;9.30;83.40;;;;;;6128375;23;20002;-75
2021/04/11 11:51:37;;;;;;;0.63;0.00;;;9.30;81.40;;;;;;6121442;23;20009;-74
2021/04/11 11:54:32;;;;;;;3.40;0.00;;;9.40;80.60;;;;;;6155214;23;20010;-74
2021/04/11 11:57:31;;;;;;;2.10;0.00;;;9.40;78.90;;;;;;6157608;23;20004;-76
2021/04/11 12:00:17;;;;;;;0.60;0.20;;;9.70;81.90;;;;;;6131608;23;20008;-74
2021/04/11 12:03:15;;;;;;;0.10;0.00;;;9.90;79.20;;;;;;6131347;23;20087;-74
2021/04/11 12:06:03;;;;;;;3.08;0.28;;;9.90;80.30;;;;;;6109792;23;20088;-73
2021/04/11 12:08:54;;;;;;;0.30;0.05;;;9.80;73.10;;;;;;6132165;23;20037;-75
2021/04/11 12:11:37;;;;;;;0.47;0.30;;;9.60;76.20;;;;;;6157235;23;20008;-75
2021/04/11 12:14:15;;;;;;;0.25;0.00;;;9.30;74.70;;;;;;6157592;23;20005;-74
2021/04/11 12:16:48;;;;;;;0.75;0.00;;;9.50;77.20;;;;;;6157778;23;20006;-74
2021/04/11 12:19:26;;;;;;;2.63;0.00;;;9.60;76.00;;;;;;6156053;23;20009;-74
2021/04/11 12:22:05;;;;;;;1.67;0.35;;;9.40;76.20;;;;;;6157185;23;20028;-74
2021/04/11 12:24:32;;;;;;;0.10;0.00;;;9.20;80.00;;;;;;6157135;23;20037;-74
2021/04/11 12:27:01;;;;;;;0.80;0.30;;;9.30;79.80;;;;;;6131128;23;20005;-74
2021/04/11 12:29:33;;;;;;;0.82;0.22;;;9.40;77.30;;;;;;6157232;23;20001;-73
2021/04/11 12:31:58;;;;;;;2.72;0.00;;;9.80;74.20;;;;;;6157251;23;20005;-73
2021/04/11 12:34:43;;;;;;;4.90;0.00;;;9.90;76.90;;;;;;6158791;23;20013;-74
2021/04/11 12:37:29;;;;;;;1.45;0.10;;;10.20;74.40;;;;;;6131284;23;20341;-74
2021/04/11 12:40:29;;;;;;;1.00;0.00;;;10.30;73.50;;;;;;6157243;23;20010;-73
2021/04/11 12:43:29;;;;;;;1.38;0.00;;;10.40;74.50;;;;;;6075338;23;20009;-74
2021/04/11 12:46:06;;;;;;;0.22;0.00;;;10.80;75.40;;;;;;6089686;23;20060;-74
2021/04/11 12:48:33;;;;;;;0.98;0.08;;;11.40;69.20;;;;;;6157251;23;20022;-74
2021/04/11 12:51:10;;;;;;;0.90;0.00;;;11.40;68.30;;;;;;6157230;23;20306;-75
2021/04/11 12:54:00;;;;;;;0.43;0.00;;;11.20;65.30;;;;;;6157399;23;20017;-74
2021/04/11 12:56:28;;;;;;;0.00;0.00;;;10.80;67.50;;;;;;6131541;23;20014;-75
2021/04/11 12:58:58;;;;;;;0.77;0.00;;;10.60;66.10;;;;;;6157281;23;20454;-74
2021/04/11 13:01:34;;;;;;;3.72;0.20;;;10.30;64.10;;;;;;6157207;23;20002;-74
2021/04/11 13:04:05;;;;;;;0.85;0.00;;;10.30;64.50;;;;;;6130898;23;20096;-75
2021/04/11 13:06:45;;;;;;;1.30;0.00;;;10.60;68.60;;;;;;6157379;23;19997;-73
2021/04/11 13:09:20;;;;;;;1.10;0.00;;;11.00;65.40;;;;;;6157149;23;19998;-74
2021/04/11 13:12:12;;;;;;;0.25;0.00;;;10.90;61.80;;;;;;6157828;23;20060;-74
2021/04/11 13:14:44;;;;;;;0.00;0.00;;;10.60;65.00;;;;;;6076370;23;20005;-74
2021/04/11 13:17:36;;;;;;;0.15;0.00;;;10.40;67.00;;;;;;6158160;23;19998;-74
2021/04/11 13:20:25;;;;;;;0.25;0.00;;;10.60;69.40;;;;;;6158143;23;20373;-74
2021/04/11 13:23:33;;;;;;;0.10;0.00;;;11.10;68.80;;;;;;6156320;23;20068;-73
2021/04/11 13:26:11;;;;;;;2.33;0.17;;;11.90;63.90;;;;;;6150205;23;20009;-73
2021/04/11 13:28:47;;;;;;;0.47;0.00;;;11.80;61.60;;;;;;6157551;23;19998;-76
2021/04/11 13:31:34;;;;;;;0.00;0.00;;;11.60;62.90;;;;;;6155974;23;20268;-74
2021/04/11 13:34:07;;;;;;;0.70;0.00;;;11.30;62.50;;;;;;6131433;23;20456;-74
2021/04/11 13:36:41;;;;;;;1.35;0.00;;;11.00;63.60;;;;;;6157717;23;20084;-74
2021/04/11 13:39:18;;;;;;;1.48;0.00;;;10.60;63.70;;;;;;6157008;23;20021;-73
2021/04/11 13:42:02;;;;;;;0.20;0.08;;;10.40;63.50;;;;;;6157231;23;20009;-74
2021/04/11 13:44:49;;;;;;;1.33;0.00;;;10.00;63.50;;;;;;6157245;23;20013;-73
2021/04/11 13:47:28;;;;;;;7.43;0.20;;;9.80;66.10;;;;;;6156648;23;20047;-75
2021/04/11 13:50:02;;;;;;;;;;;9.60;67.60;;;;;;6131187;23;20052;-74
2021/04/11 13:52:30;;;;;;;0.47;0.00;;;9.60;68.70;;;;;;6156930;23;19904;-75
2021/04/11 13:55:10;;;;;;;1.45;0.15;;;9.80;66.40;;;;;;6131237;23;20052;-74
2021/04/11 13:57:54;;;;;;;0.55;0.00;;;10.10;67.70;;;;;;6131175;23;20009;-74
2021/04/11 14:03:41;;;;;;;1.40;0.00;;;11.20;64.00;;;;;;6156732;23;20016;-74
2021/04/11 14:06:28;;;;;;;1.63;0.00;;;11.10;64.90;;;;;;6156885;23;19997;-75
2021/04/11 14:09:24;;;;;;;1.15;0.00;;;10.90;66.10;;;;;;6154134;23;20028;-75
2021/04/11 14:12:11;;;;;;;1.38;0.00;;;10.60;70.60;;;;;;6154759;23;20001;-75